Time;durP1;ratioP1;P1;durP2;ratioP2;P2;SDS_P1;SDS_P2;PMS_P1;PMS_P2;Temp;Humidity;BMP_temperature;BMP_pressure;BME280_temperature;BME280_humidity;BME280_pressure;Samples;Min_cycle;Max_cycle;Signal;HPM_P1;HPM_P2
2022/06/01 00:02:19;;;;;;;3.05;2.83;;;9.20;99.90;;;;;;5054049;28;20667;-72
2022/06/01 00:04:45;;;;;;;4.78;3.00;;;9.20;99.90;;;;;;5054045;28;20708;-72
2022/06/01 00:07:10;;;;;;;3.72;3.22;;;9.20;99.90;;;;;;5055059;28;20196;-72
2022/06/01 00:09:36;;;;;;;3.90;2.92;;;9.20;99.90;;;;;;5053858;28;20171;-72
2022/06/01 00:12:02;;;;;;;3.22;3.03;;;9.20;99.90;;;;;;5053692;28;20300;-72
2022/06/01 00:14:28;;;;;;;3.08;2.88;;;9.10;99.90;;;;;;5053633;28;20286;-73
2022/06/01 00:16:56;;;;;;;6.55;2.80;;;9.00;99.90;;;;;;5055112;28;20246;-72
2022/06/01 00:19:22;;;;;;;5.93;2.85;;;9.00;99.90;;;;;;5054557;28;20194;-72
2022/06/01 00:24:33;;;;;;;3.28;2.70;;;8.90;99.90;;;;;;5055078;28;20204;-72
2022/06/01 00:26:58;;;;;;;5.90;2.83;;;9.00;99.90;;;;;;5053519;28;20182;-72
2022/06/01 00:29:58;;;;;;;3.10;2.90;;;9.10;99.90;;;;;;5053414;28;20178;-72
2022/06/01 00:32:24;;;;;;;7.28;2.80;;;9.10;99.90;;;;;;5054530;28;20236;-73
2022/06/01 00:34:49;;;;;;;4.90;2.92;;;9.10;99.90;;;;;;5053275;28;20201;-72
2022/06/01 00:37:16;;;;;;;4.43;2.75;;;9.00;99.90;;;;;;5053384;28;20209;-72
2022/06/01 00:39:44;;;;;;;3.25;2.95;;;9.00;99.90;;;;;;5053261;28;20225;-72
2022/06/01 00:42:26;;;;;;;5.47;2.80;;;8.90;99.90;;;;;;5053211;28;20641;-72
2022/06/01 00:44:52;;;;;;;3.83;2.60;;;8.90;99.90;;;;;;5053726;28;20237;-73
2022/06/01 00:47:20;;;;;;;3.85;2.72;;;8.90;99.90;;;;;;5053392;28;20240;-73
2022/06/01 00:50:08;;;;;;;4.22;2.88;;;8.80;99.90;;;;;;5053012;28;20178;-73
2022/06/01 00:52:36;;;;;;;5.35;2.85;;;8.70;99.90;;;;;;5054198;28;20595;-73
2022/06/01 00:55:17;;;;;;;5.85;3.38;;;8.70;99.90;;;;;;5052853;28;20190;-72
2022/06/01 00:57:47;;;;;;;3.55;3.30;;;8.60;99.90;;;;;;5053028;28;20169;-72
2022/06/01 01:00:20;;;;;;;3.63;3.42;;;8.60;99.90;;;;;;5052982;28;20182;-72
2022/06/01 01:02:47;;;;;;;7.38;3.10;;;8.60;99.90;;;;;;5053568;28;20193;-73
2022/06/01 01:05:16;;;;;;;4.20;3.40;;;8.60;99.90;;;;;;5055256;28;20256;-74
2022/06/01 01:07:43;;;;;;;5.40;3.33;;;8.60;99.90;;;;;;5056220;28;20186;-74
2022/06/01 01:10:10;;;;;;;3.95;3.10;;;8.50;99.90;;;;;;5056182;28;20206;-74
2022/06/01 01:15:21;;;;;;;3.10;2.90;;;8.40;99.90;;;;;;5056725;28;20158;-75
2022/06/01 01:17:49;;;;;;;2.92;2.70;;;8.50;99.90;;;;;;5055741;28;20174;-75
2022/06/01 01:20:16;;;;;;;3.38;2.60;;;8.60;99.90;;;;;;5056382;28;20170;-74
2022/06/01 01:23:17;;;;;;;3.55;2.85;;;8.60;99.90;;;;;;5054841;28;20179;-74
2022/06/01 01:25:42;;;;;;;3.95;2.80;;;8.60;99.90;;;;;;5056434;28;20151;-75
2022/06/01 01:28:09;;;;;;;2.80;2.58;;;8.60;99.90;;;;;;5055275;28;20178;-75
2022/06/01 01:30:37;;;;;;;5.70;2.60;;;8.70;99.90;;;;;;5056528;28;20201;-75
2022/06/01 01:33:14;;;;;;;7.55;2.63;;;8.70;99.90;;;;;;5054877;28;20201;-74
2022/06/01 01:35:41;;;;;;;7.63;3.00;;;8.70;99.90;;;;;;5055988;28;20555;-75
2022/06/01 01:38:23;;;;;;;3.58;2.55;;;8.70;99.90;;;;;;5056057;28;20174;-75
2022/06/01 01:41:07;;;;;;;3.08;2.70;;;8.70;99.90;;;;;;5056597;28;20216;-75
2022/06/01 01:43:37;;;;;;;3.42;2.88;;;8.80;99.90;;;;;;5056176;28;20202;-74
2022/06/01 01:46:03;;;;;;;3.85;2.92;;;8.90;99.90;;;;;;5054801;28;20232;-74
2022/06/01 01:48:30;;;;;;;5.28;3.15;;;8.90;99.90;;;;;;5054911;28;20182;-74
2022/06/01 01:50:56;;;;;;;4.03;3.55;;;8.90;99.90;;;;;;5055275;28;20206;-74
2022/06/01 01:53:21;;;;;;;4.40;3.65;;;8.90;99.90;;;;;;5055148;28;20285;-74
2022/06/01 01:55:59;;;;;;;4.32;3.78;;;8.80;99.90;;;;;;5055266;28;20174;-74
2022/06/01 01:58:41;;;;;;;5.72;4.20;;;8.70;99.90;;;;;;5055666;28;20170;-75
2022/06/01 02:08:01;;;;;;;4.07;3.30;;;8.50;99.90;;;;;;5053453;28;20162;-72
2022/06/01 02:13:14;;;;;;;4.80;3.63;;;8.40;99.90;;;;;;5053363;28;20247;-73
2022/06/01 02:15:42;;;;;;;6.57;3.35;;;8.40;99.90;;;;;;5052739;28;20174;-72
2022/06/01 02:18:14;;;;;;;8.40;3.33;;;8.40;99.90;;;;;;5052696;28;20170;-72
2022/06/01 02:20:45;;;;;;;15.23;4.25;;;8.40;99.90;;;;;;5052392;28;20193;-72
2022/06/01 02:23:14;;;;;;;10.48;3.40;;;8.40;99.90;;;;;;5053446;28;20288;-73
2022/06/01 02:25:44;;;;;;;12.65;3.50;;;8.40;99.90;;;;;;5052899;28;20186;-73
2022/06/01 02:28:10;;;;;;;5.50;3.35;;;8.30;99.90;;;;;;5051828;28;20224;-72
2022/06/01 02:30:39;;;;;;;5.63;3.30;;;8.30;99.90;;;;;;5051962;28;20296;-72
2022/06/01 02:33:09;;;;;;;3.60;3.30;;;8.30;99.90;;;;;;5051645;28;20207;-73
2022/06/01 02:35:38;;;;;;;3.33;3.13;;;8.20;99.90;;;;;;5051982;28;20261;-73
2022/06/01 02:38:10;;;;;;;4.95;3.10;;;8.20;99.90;;;;;;5052937;28;20243;-72
2022/06/01 02:40:37;;;;;;;3.50;3.20;;;8.20;99.90;;;;;;5051862;28;20256;-72
2022/06/01 02:43:03;;;;;;;7.68;2.92;;;8.20;99.90;;;;;;5052411;28;20199;-73
2022/06/01 02:45:29;;;;;;;3.03;2.83;;;8.20;99.90;;;;;;5051990;28;20178;-72
2022/06/01 02:47:56;;;;;;;3.17;2.97;;;8.20;99.90;;;;;;5051662;28;20233;-72
2022/06/01 02:50:26;;;;;;;4.85;3.10;;;8.30;99.90;;;;;;5052803;28;20273;-72
2022/06/01 02:52:52;;;;;;;6.40;3.20;;;8.20;99.90;;;;;;5051498;28;20173;-73
2022/06/01 02:55:21;;;;;;;7.30;3.10;;;8.20;99.90;;;;;;5052756;28;20175;-72
2022/06/01 02:57:47;;;;;;;4.68;3.13;;;8.00;99.90;;;;;;5051803;28;20201;-72
2022/06/01 03:00:35;;;;;;;3.28;2.90;;;7.90;99.90;;;;;;5053449;28;20201;-72
2022/06/01 03:03:02;;;;;;;4.32;2.72;;;7.80;99.90;;;;;;5055191;28;20224;-73
2022/06/01 03:05:34;;;;;;;3.20;2.78;;;7.80;99.90;;;;;;5055340;28;20213;-72
2022/06/01 03:08:00;;;;;;;7.45;3.20;;;7.80;99.90;;;;;;5055076;28;20240;-72
2022/06/01 03:10:26;;;;;;;3.40;3.10;;;7.90;99.90;;;;;;5055826;28;20222;-72
2022/06/01 03:12:53;;;;;;;10.05;3.35;;;7.90;99.90;;;;;;5055808;28;20270;-73
2022/06/01 03:15:20;;;;;;;3.55;3.25;;;7.90;99.90;;;;;;5056125;28;20598;-72
2022/06/01 03:17:47;;;;;;;9.65;3.38;;;8.00;99.90;;;;;;5055522;28;20181;-72
2022/06/01 03:20:16;;;;;;;5.20;3.13;;;8.00;99.90;;;;;;5056204;28;20171;-72
2022/06/01 03:22:42;;;;;;;5.20;2.97;;;8.00;99.90;;;;;;5055999;28;20251;-73
2022/06/01 03:25:12;;;;;;;6.78;3.33;;;7.90;99.90;;;;;;5056218;28;20193;-72
2022/06/01 03:27:38;;;;;;;7.10;2.90;;;7.80;99.90;;;;;;5056253;28;20663;-72
2022/06/01 03:30:06;;;;;;;3.28;2.85;;;7.80;99.90;;;;;;5055817;28;20672;-72
2022/06/01 03:32:32;;;;;;;9.15;3.60;;;7.80;99.90;;;;;;5054532;28;20228;-72
2022/06/01 03:34:58;;;;;;;4.78;3.35;;;7.70;99.90;;;;;;5054704;28;20202;-72
2022/06/01 03:37:23;;;;;;;10.15;3.17;;;7.60;99.90;;;;;;5054577;28;20174;-72
2022/06/01 03:39:49;;;;;;;15.57;4.30;;;7.50;99.90;;;;;;5054312;28;20217;-72
2022/06/01 03:42:14;;;;;;;8.02;3.80;;;7.60;99.90;;;;;;5054713;28;20193;-72
2022/06/01 03:47:24;;;;;;;5.50;3.22;;;7.80;99.90;;;;;;5056548;28;20189;-72
2022/06/01 03:49:51;;;;;;;7.95;4.88;;;7.90;99.90;;;;;;5063938;28;20170;-72
2022/06/01 03:52:17;;;;;;;10.13;5.10;;;8.10;99.90;;;;;;5068757;28;20178;-72
2022/06/01 03:54:45;;;;;;;12.10;4.20;;;8.20;99.90;;;;;;5068778;28;20198;-73
2022/06/01 03:57:12;;;;;;;4.55;4.25;;;8.30;99.90;;;;;;5068608;28;20242;-72
2022/06/01 03:59:38;;;;;;;7.57;4.95;;;8.30;99.90;;;;;;5068164;28;20242;-73
2022/06/01 04:02:06;;;;;;;31.00;5.85;;;8.40;99.90;;;;;;5067978;28;20186;-72
2022/06/01 04:04:33;;;;;;;20.60;14.43;;;8.50;99.90;;;;;;5068231;28;20297;-72
2022/06/01 04:07:01;;;;;;;5.82;5.10;;;8.60;99.90;;;;;;5068336;28;20178;-72
2022/06/01 04:09:29;;;;;;;11.27;4.78;;;8.60;99.90;;;;;;5067834;28;20218;-72
2022/06/01 04:11:56;;;;;;;6.28;4.35;;;8.80;99.90;;;;;;5068192;28;20194;-73
2022/06/01 04:14:23;;;;;;;6.88;4.60;;;8.90;99.90;;;;;;5066445;28;20198;-72
2022/06/01 04:16:49;;;;;;;7.40;4.82;;;9.00;99.90;;;;;;5067061;28;20177;-73
2022/06/01 04:19:16;;;;;;;9.05;4.40;;;9.20;99.90;;;;;;5068934;28;20181;-72
2022/06/01 04:21:46;;;;;;;10.65;4.25;;;9.20;99.90;;;;;;5067422;28;20174;-73
2022/06/01 04:24:15;;;;;;;6.57;5.30;;;9.20;99.90;;;;;;5066869;28;20194;-73
2022/06/01 04:26:41;;;;;;;4.90;3.50;;;9.10;99.90;;;;;;5067695;28;20174;-72
2022/06/01 04:29:08;;;;;;;5.85;3.50;;;9.30;99.90;;;;;;5068044;28;20178;-73
2022/06/01 04:31:35;;;;;;;4.07;3.67;;;9.30;99.90;;;;;;5061689;28;20217;-72
2022/06/01 04:34:01;;;;;;;4.97;3.70;;;9.30;99.90;;;;;;5053321;28;20197;-72
2022/06/01 04:36:26;;;;;;;7.32;3.72;;;9.40;99.90;;;;;;5053812;28;20182;-72
2022/06/01 04:38:52;;;;;;;4.57;3.20;;;9.40;99.90;;;;;;5054234;28;20214;-72
2022/06/01 04:41:18;;;;;;;5.53;3.65;;;9.40;99.90;;;;;;5054519;28;20280;-76
2022/06/01 04:43:43;;;;;;;4.07;3.78;;;9.40;99.90;;;;;;5055948;28;20191;-75
2022/06/01 04:46:09;;;;;;;10.43;4.25;;;9.20;99.90;;;;;;5054935;28;20182;-75
2022/06/01 04:48:35;;;;;;;11.13;4.88;;;9.10;99.90;;;;;;5055160;28;20186;-74
2022/06/01 04:51:01;;;;;;;8.88;5.43;;;9.10;99.90;;;;;;5055604;28;20206;-75
2022/06/01 04:53:27;;;;;;;9.63;4.88;;;9.40;99.90;;;;;;5055723;28;20722;-75
2022/06/01 04:55:53;;;;;;;6.50;4.80;;;9.60;99.90;;;;;;5053705;28;20711;-75
2022/06/01 04:58:19;;;;;;;7.57;4.25;;;9.70;99.90;;;;;;5056476;28;20186;-75
2022/06/01 05:00:45;;;;;;;5.57;4.88;;;9.80;99.90;;;;;;5056087;28;20276;-75
2022/06/01 05:03:11;;;;;;;6.60;4.10;;;9.80;99.90;;;;;;5055411;28;20285;-74
2022/06/01 05:05:39;;;;;;;5.47;4.10;;;9.80;99.90;;;;;;5055472;28;20209;-74
2022/06/01 05:08:06;;;;;;;7.35;4.82;;;9.80;99.90;;;;;;5056663;28;20201;-74
2022/06/01 05:10:32;;;;;;;5.45;4.63;;;10.10;99.90;;;;;;5056122;28;20541;-74
2022/06/01 05:12:58;;;;;;;6.13;4.60;;;10.30;99.90;;;;;;5054617;28;20182;-74
2022/06/01 05:15:23;;;;;;;5.75;4.22;;;10.60;99.90;;;;;;5055230;28;20174;-75
2022/06/01 05:17:49;;;;;;;7.93;4.30;;;11.10;99.90;;;;;;5054745;28;20217;-75
2022/06/01 05:20:28;;;;;;;4.60;4.07;;;11.20;99.90;;;;;;5053710;28;20178;-75
2022/06/01 05:22:53;;;;;;;6.30;4.28;;;11.60;99.90;;;;;;5053176;28;20189;-74
2022/06/01 05:25:21;;;;;;;6.32;4.05;;;11.70;99.90;;;;;;5054658;28;20536;-74
2022/06/01 05:27:47;;;;;;;4.45;3.95;;;12.00;99.90;;;;;;5053903;28;20546;-74
2022/06/01 05:30:12;;;;;;;4.70;3.80;;;12.30;99.90;;;;;;5056141;28;20280;-74
2022/06/01 05:32:38;;;;;;;3.97;3.67;;;12.50;99.90;;;;;;5057835;28;20235;-74
2022/06/01 05:35:04;;;;;;;6.32;3.60;;;12.60;99.90;;;;;;5056118;28;20194;-74
2022/06/01 05:37:29;;;;;;;6.53;3.72;;;12.50;99.90;;;;;;5056814;28;20182;-74
2022/06/01 05:39:55;;;;;;;6.55;3.60;;;12.30;99.90;;;;;;5055777;28;20286;-74
2022/06/01 05:42:22;;;;;;;4.65;3.33;;;12.20;99.90;;;;;;5055444;28;20307;-74
2022/06/01 05:44:47;;;;;;;6.70;3.53;;;12.10;99.90;;;;;;5055966;28;20668;-74
2022/06/01 05:47:13;;;;;;;4.53;3.03;;;12.30;99.90;;;;;;5055585;28;20174;-75
2022/06/01 05:49:39;;;;;;;9.60;3.20;;;12.70;99.90;;;;;;5054231;28;20256;-74
2022/06/01 05:52:05;;;;;;;3.13;2.92;;;13.00;99.90;;;;;;5052154;28;20218;-74
2022/06/01 05:54:30;;;;;;;3.13;2.92;;;13.40;99.90;;;;;;5054683;28;20194;-74
2022/06/01 05:56:56;;;;;;;4.38;3.10;;;13.60;99.90;;;;;;5055411;28;20599;-74
2022/06/01 05:59:21;;;;;;;3.38;3.13;;;13.50;99.90;;;;;;5055001;28;20189;-74
2022/06/01 06:01:47;;;;;;;6.68;3.38;;;13.30;99.90;;;;;;5054556;28;20193;-74
2022/06/01 06:04:12;;;;;;;5.45;3.22;;;13.10;99.90;;;;;;5054849;28;20202;-74
2022/06/01 06:06:38;;;;;;;3.30;3.00;;;13.60;99.90;;;;;;5053690;28;20186;-74
2022/06/01 06:09:06;;;;;;;11.32;3.92;;;14.10;99.90;;;;;;5054828;28;20228;-74
2022/06/01 06:11:35;;;;;;;5.72;4.22;;;14.10;99.90;;;;;;5053125;28;20202;-74
2022/06/01 06:14:01;;;;;;;4.40;3.92;;;14.30;99.90;;;;;;5054272;28;20205;-74
2022/06/01 06:16:30;;;;;;;4.10;3.80;;;14.50;99.90;;;;;;5052871;28;20224;-74
2022/06/01 06:18:56;;;;;;;5.65;4.05;;;14.70;99.90;;;;;;5053087;28;20192;-74
2022/06/01 06:21:28;;;;;;;4.38;3.80;;;15.00;99.90;;;;;;5052985;28;20182;-74
2022/06/01 06:23:58;;;;;;;11.00;4.10;;;15.40;99.90;;;;;;5054359;28;20285;-74
2022/06/01 06:26:24;;;;;;;5.70;4.22;;;16.30;99.90;;;;;;5052704;28;20167;-74
2022/06/01 06:28:49;;;;;;;5.32;3.97;;;16.10;99.90;;;;;;5053570;28;20185;-74
2022/06/01 06:31:15;;;;;;;5.22;4.80;;;15.60;99.90;;;;;;5052929;28;20212;-74
2022/06/01 06:33:40;;;;;;;5.13;4.70;;;15.30;99.90;;;;;;5053942;28;20572;-74
2022/06/01 06:36:08;;;;;;;7.40;6.80;;;15.00;99.90;;;;;;5056975;28;20174;-74
2022/06/01 06:38:36;;;;;;;8.77;7.82;;;15.10;99.90;;;;;;5057954;28;20182;-74
2022/06/01 06:41:03;;;;;;;11.65;10.55;;;15.20;99.90;;;;;;5057045;28;20197;-74
2022/06/01 06:43:31;;;;;;;9.77;8.88;;;15.50;99.90;;;;;;5056803;28;20704;-74
2022/06/01 06:46:09;;;;;;;5.63;5.22;;;15.80;99.90;;;;;;5056671;28;20175;-74
2022/06/01 06:48:35;;;;;;;7.35;5.88;;;16.30;99.90;;;;;;5057143;28;20178;-74
2022/06/01 06:51:01;;;;;;;5.57;4.85;;;16.40;99.90;;;;;;5056527;28;20754;-75
2022/06/01 06:53:28;;;;;;;6.85;4.88;;;16.40;99.90;;;;;;5057748;28;20221;-74
2022/06/01 06:55:54;;;;;;;7.25;4.68;;;16.40;99.90;;;;;;5056794;28;20170;-74
2022/06/01 06:58:21;;;;;;;4.70;4.30;;;16.70;99.90;;;;;;5057940;28;20185;-75
2022/06/01 07:00:46;;;;;;;4.43;4.10;;;16.70;99.90;;;;;;5056590;28;20178;-75
2022/06/01 07:03:13;;;;;;;4.93;4.32;;;16.70;99.90;;;;;;5056253;28;20224;-74
2022/06/01 07:08:24;;;;;;;4.40;4.00;;;17.10;99.90;;;;;;5058592;28;20249;-74
2022/06/01 07:10:50;;;;;;;5.00;4.60;;;17.20;99.60;;;;;;5057684;28;20254;-74
2022/06/01 07:13:16;;;;;;;6.90;4.68;;;17.10;99.20;;;;;;5057191;28;20289;-74
2022/06/01 07:15:41;;;;;;;5.18;4.78;;;16.60;99.90;;;;;;5057990;28;20223;-74
2022/06/01 07:18:07;;;;;;;5.43;4.70;;;16.30;99.90;;;;;;5057448;28;20219;-74
2022/06/01 07:20:33;;;;;;;5.63;5.05;;;16.30;99.90;;;;;;5057531;28;20178;-74
2022/06/01 07:22:59;;;;;;;5.20;4.80;;;16.40;99.90;;;;;;5056862;28;20182;-75
2022/06/01 07:25:25;;;;;;;4.85;4.50;;;16.60;99.90;;;;;;5058244;28;20174;-75
2022/06/01 07:27:51;;;;;;;12.60;5.22;;;16.90;99.90;;;;;;5058513;28;20209;-75
2022/06/01 07:30:19;;;;;;;6.55;4.25;;;17.20;99.90;;;;;;5057816;28;20252;-75
2022/06/01 07:32:48;;;;;;;6.40;4.50;;;17.80;99.90;;;;;;5058823;28;20272;-75
2022/06/01 07:35:18;;;;;;;4.78;4.38;;;17.70;99.90;;;;;;5057924;28;20186;-75
2022/06/01 07:43:16;;;;;;;7.68;4.82;;;16.70;99.90;;;;;;5058772;28;20271;-74
2022/06/01 07:45:45;;;;;;;6.57;5.05;;;16.60;99.90;;;;;;5055693;28;20179;-74
2022/06/01 07:48:11;;;;;;;6.03;5.00;;;16.80;99.90;;;;;;5057452;28;20645;-75
2022/06/01 07:50:37;;;;;;;5.63;5.10;;;16.50;99.90;;;;;;5057663;28;20297;-75
2022/06/01 07:53:05;;;;;;;5.60;5.10;;;16.40;99.90;;;;;;5055804;28;20240;-75
2022/06/01 07:55:31;;;;;;;8.02;4.95;;;16.20;99.90;;;;;;5057080;28;20582;-75
2022/06/01 07:57:56;;;;;;;6.45;4.85;;;16.20;99.90;;;;;;5057399;28;20166;-75
2022/06/01 08:00:22;;;;;;;6.20;5.68;;;15.90;99.90;;;;;;5056875;28;20186;-75
2022/06/01 08:02:48;;;;;;;7.35;5.40;;;15.70;99.90;;;;;;5056088;28;20219;-74
2022/06/01 08:05:15;;;;;;;5.65;5.15;;;15.70;99.90;;;;;;5056116;28;20184;-74
2022/06/01 08:07:41;;;;;;;5.53;5.13;;;15.90;99.90;;;;;;5057881;28;20618;-75
2022/06/01 08:10:08;;;;;;;6.70;5.45;;;16.00;99.90;;;;;;5056722;28;20174;-75
2022/06/01 08:15:19;;;;;;;9.50;5.65;;;16.10;99.90;;;;;;5057411;28;20209;-74
2022/06/01 08:17:46;;;;;;;6.35;5.05;;;16.30;99.90;;;;;;5057435;28;20177;-75
2022/06/01 08:20:12;;;;;;;5.68;5.18;;;16.50;99.90;;;;;;5057863;28;20167;-75
2022/06/01 08:22:39;;;;;;;5.68;5.18;;;16.60;99.90;;;;;;5056142;28;20197;-75
2022/06/01 08:25:07;;;;;;;5.43;4.82;;;16.80;99.90;;;;;;5056492;28;20767;-75
2022/06/01 08:27:32;;;;;;;6.38;5.30;;;16.80;99.90;;;;;;5055707;28;20206;-75
2022/06/01 08:29:59;;;;;;;6.95;5.55;;;17.00;99.90;;;;;;5055891;28;20190;-75
2022/06/01 08:32:25;;;;;;;8.40;5.53;;;17.10;99.90;;;;;;5057347;28;20240;-75
2022/06/01 08:34:51;;;;;;;6.25;5.75;;;17.10;99.90;;;;;;5056944;28;20563;-75
2022/06/01 08:37:17;;;;;;;6.30;5.70;;;17.20;99.90;;;;;;5057540;28;20202;-75
2022/06/01 08:39:44;;;;;;;5.53;5.03;;;17.30;99.90;;;;;;5056556;28;20209;-75
2022/06/01 08:42:14;;;;;;;5.60;5.10;;;17.40;99.90;;;;;;5056380;28;20203;-75
2022/06/01 08:44:42;;;;;;;4.97;4.57;;;17.30;99.50;;;;;;5055861;28;20206;-75
2022/06/01 08:47:19;;;;;;;5.53;4.95;;;17.40;99.30;;;;;;5055933;28;20182;-75
2022/06/01 08:49:45;;;;;;;5.80;5.13;;;17.40;98.70;;;;;;5056217;28;20264;-75
2022/06/01 08:52:11;;;;;;;5.43;4.85;;;17.50;98.40;;;;;;5056200;28;20303;-75
2022/06/01 08:54:37;;;;;;;5.68;5.00;;;17.50;97.60;;;;;;5057158;28;20194;-75
2022/06/01 08:57:09;;;;;;;5.93;4.47;;;17.50;97.70;;;;;;5055893;28;20214;-75
2022/06/01 08:59:43;;;;;;;6.32;4.75;;;17.50;96.70;;;;;;5056462;28;20169;-75
2022/06/01 09:02:36;;;;;;;6.07;4.60;;;17.70;96.00;;;;;;5055685;28;20239;-75
2022/06/01 09:05:05;;;;;;;5.05;4.55;;;17.80;96.70;;;;;;5055592;28;20205;-75
2022/06/01 09:08:07;;;;;;;5.53;4.45;;;17.70;95.90;;;;;;5055711;28;20178;-75
2022/06/01 09:11:06;;;;;;;5.25;4.22;;;17.70;96.50;;;;;;5034895;28;20299;-75
2022/06/01 09:13:40;;;;;;;4.65;4.20;;;17.90;96.10;;;;;;5056433;28;20182;-75
2022/06/01 09:16:17;;;;;;;4.00;3.70;;;18.40;95.10;;;;;;5056383;28;20227;-75
2022/06/01 09:18:49;;;;;;;3.50;3.20;;;18.70;93.60;;;;;;5055282;28;20257;-75
2022/06/01 09:24:22;;;;;;;3.83;3.42;;;19.00;89.40;;;;;;5056561;28;20220;-75
2022/06/01 09:27:05;;;;;;;4.18;3.78;;;19.20;89.30;;;;;;5056005;28;20645;-75
2022/06/01 09:29:52;;;;;;;5.20;3.60;;;19.20;89.80;;;;;;5055861;28;20185;-75
2022/06/01 09:32:33;;;;;;;4.25;3.10;;;19.30;87.30;;;;;;5055310;28;20189;-75
2022/06/01 09:35:10;;;;;;;4.90;2.90;;;19.30;86.40;;;;;;5054734;28;20213;-75
2022/06/01 09:37:46;;;;;;;3.58;2.88;;;19.50;83.80;;;;;;5054675;28;20166;-75
2022/06/01 09:40:30;;;;;;;3.47;2.70;;;19.90;83.10;;;;;;5055540;28;20189;-75
2022/06/01 09:43:00;;;;;;;4.43;2.80;;;19.90;78.80;;;;;;5054554;28;20235;-75
2022/06/01 09:45:33;;;;;;;3.72;2.60;;;20.10;80.20;;;;;;5056619;28;20702;-75
2022/06/01 09:48:27;;;;;;;5.43;2.45;;;20.10;78.70;;;;;;5055806;28;20167;-75
2022/06/01 09:51:08;;;;;;;2.60;2.40;;;19.90;76.00;;;;;;5055121;28;20653;-75
2022/06/01 09:53:50;;;;;;;3.28;2.55;;;19.90;75.20;;;;;;5054883;28;20198;-75
2022/06/01 09:56:19;;;;;;;3.85;2.60;;;19.90;77.40;;;;;;5055085;28;20178;-75
2022/06/01 10:07:24;;;;;;;2.42;2.28;;;20.20;77.30;;;;;;5056239;28;20212;-75
2022/06/01 10:09:52;;;;;;;2.88;2.60;;;20.40;75.20;;;;;;5058755;28;20182;-76
2022/06/01 10:12:49;;;;;;;3.47;2.40;;;20.30;70.90;;;;;;5059816;28;20209;-76
2022/06/01 10:15:36;;;;;;;5.70;2.33;;;20.30;70.10;;;;;;5058730;28;20676;-75
2022/06/01 10:18:19;;;;;;;7.75;2.35;;;20.40;71.50;;;;;;5060401;28;20162;-75
2022/06/01 10:20:55;;;;;;;2.70;1.60;;;20.30;72.10;;;;;;5058654;28;20169;-76
2022/06/01 10:23:30;;;;;;;6.72;2.05;;;20.20;69.60;;;;;;5058926;28;20201;-75
2022/06/01 10:26:01;;;;;;;5.15;1.65;;;20.30;68.40;;;;;;5058416;28;20189;-75
2022/06/01 10:28:44;;;;;;;4.32;1.70;;;20.70;69.00;;;;;;5059185;28;20170;-75
2022/06/01 10:31:42;;;;;;;1.70;1.60;;;20.80;64.10;;;;;;5058936;28;20198;-75
2022/06/01 10:34:25;;;;;;;1.75;1.58;;;20.70;60.10;;;;;;5058220;28;20676;-75
2022/06/01 10:37:09;;;;;;;3.72;1.70;;;20.70;61.30;;;;;;5058178;28;20267;-75
2022/06/01 10:39:36;;;;;;;5.75;1.98;;;20.60;62.60;;;;;;5057566;28;20539;-75
2022/06/01 10:42:09;;;;;;;3.63;1.50;;;20.30;61.10;;;;;;5057836;28;20182;-75
2022/06/01 10:44:40;;;;;;;3.83;2.00;;;20.40;61.10;;;;;;5058935;28;20360;-75
2022/06/01 10:47:36;;;;;;;4.45;1.73;;;20.70;62.10;;;;;;5057731;28;20637;-75
2022/06/01 10:50:12;;;;;;;1.92;1.63;;;21.00;62.70;;;;;;5058965;28;20162;-75
2022/06/01 10:52:43;;;;;;;4.05;1.77;;;21.20;60.20;;;;;;5058499;28;20173;-75
2022/06/01 10:55:26;;;;;;;6.43;2.20;;;21.50;60.40;;;;;;5057758;28;20185;-75
2022/06/01 10:57:52;;;;;;;1.90;1.50;;;21.60;61.10;;;;;;5058554;28;20166;-76
2022/06/01 11:00:20;;;;;;;1.73;1.58;;;21.70;60.00;;;;;;5058498;28;20277;-76
2022/06/01 11:03:23;;;;;;;3.00;1.50;;;21.80;58.70;;;;;;5057417;28;20178;-75
2022/06/01 11:06:06;;;;;;;5.25;1.67;;;22.10;57.20;;;;;;5057620;28;20174;-75
2022/06/01 11:09:05;;;;;;;1.92;1.60;;;22.40;56.90;;;;;;5058301;28;20602;-75
2022/06/01 11:11:56;;;;;;;2.80;1.30;;;22.80;55.00;;;;;;5057775;28;20190;-75
2022/06/01 11:14:49;;;;;;;6.47;1.60;;;23.10;55.10;;;;;;5057664;28;20191;-75
2022/06/01 11:17:26;;;;;;;4.50;1.90;;;23.10;54.20;;;;;;5057001;28;20163;-75
2022/06/01 11:20:09;;;;;;;5.55;1.58;;;23.10;54.90;;;;;;5056191;28;20593;-75
2022/06/01 11:22:56;;;;;;;1.80;1.45;;;23.30;54.10;;;;;;5057263;28;20198;-75
2022/06/01 11:25:27;;;;;;;2.10;1.80;;;23.20;53.70;;;;;;5057814;28;20597;-75
2022/06/01 11:27:56;;;;;;;3.83;2.10;;;23.20;54.70;;;;;;5056969;28;20197;-75
2022/06/01 11:30:26;;;;;;;6.00;2.00;;;23.00;53.50;;;;;;5056886;28;20586;-75
2022/06/01 11:33:09;;;;;;;3.85;2.28;;;22.90;53.10;;;;;;5056957;28;20186;-75
2022/06/01 11:35:44;;;;;;;3.80;2.17;;;22.70;52.00;;;;;;5058481;28;20528;-76
2022/06/01 11:38:25;;;;;;;3.40;1.90;;;22.60;51.70;;;;;;5058301;28;20170;-76
2022/06/01 11:41:24;;;;;;;3.40;1.70;;;22.60;52.60;;;;;;5058001;28;20193;-76
2022/06/01 11:44:14;;;;;;;13.68;2.80;;;22.10;52.70;;;;;;5054155;28;20279;-75
2022/06/01 11:46:50;;;;;;;8.00;2.25;;;22.00;53.80;;;;;;5057442;28;20184;-75
2022/06/01 11:49:42;;;;;;;2.42;1.48;;;22.30;53.50;;;;;;5056969;28;20178;-76
2022/06/01 11:52:23;;;;;;;2.03;1.20;;;22.40;52.40;;;;;;5059133;28;20254;-76
2022/06/01 11:55:15;;;;;;;3.28;1.55;;;22.40;53.20;;;;;;5058070;28;20194;-75
2022/06/01 11:57:52;;;;;;;1.95;1.30;;;22.10;52.80;;;;;;5042242;28;20234;-75
2022/06/01 12:00:30;;;;;;;1.50;1.40;;;22.20;54.60;;;;;;5056142;28;20269;-75
2022/06/01 12:03:12;;;;;;;2.20;1.33;;;22.40;53.50;;;;;;5058557;28;20163;-74
2022/06/01 12:05:56;;;;;;;1.58;1.15;;;22.60;53.90;;;;;;5057101;28;20171;-75
2022/06/01 12:08:30;;;;;;;1.67;1.45;;;22.60;52.40;;;;;;5057759;28;20516;-74
2022/06/01 12:11:09;;;;;;;5.57;1.70;;;22.40;52.90;;;;;;5054063;28;20202;-73
2022/06/01 12:13:38;;;;;;;4.97;1.70;;;22.40;54.10;;;;;;5053875;28;20194;-73
2022/06/01 12:16:04;;;;;;;2.00;1.35;;;22.40;54.30;;;;;;5054209;28;20224;-73
2022/06/01 12:18:31;;;;;;;3.03;1.38;;;22.50;50.30;;;;;;5055088;28;20178;-73
2022/06/01 12:21:20;;;;;;;2.15;1.67;;;22.50;52.40;;;;;;5053929;28;20186;-73
2022/06/01 12:29:53;;;;;;;4.25;1.67;;;22.30;51.60;;;;;;5055145;28;20248;-73
2022/06/01 12:32:19;;;;;;;3.50;1.40;;;22.00;52.10;;;;;;5053527;28;20198;-73
2022/06/01 12:34:52;;;;;;;1.70;1.25;;;21.80;53.50;;;;;;5053504;28;20190;-74
2022/06/01 12:37:24;;;;;;;2.50;1.42;;;21.70;53.90;;;;;;5055843;28;20182;-75
2022/06/01 12:39:56;;;;;;;2.20;1.42;;;21.60;52.50;;;;;;5056044;28;20665;-73
2022/06/01 12:42:55;;;;;;;2.45;1.40;;;21.50;52.20;;;;;;5055466;28;20170;-73
2022/06/01 12:45:28;;;;;;;4.30;1.30;;;21.50;51.80;;;;;;5053661;28;20194;-73
2022/06/01 12:47:59;;;;;;;1.40;1.30;;;21.70;54.60;;;;;;5054427;28;20256;-73
2022/06/01 12:50:27;;;;;;;1.65;1.40;;;21.90;53.70;;;;;;5053293;28;20245;-73
2022/06/01 12:53:19;;;;;;;2.05;1.48;;;22.20;51.20;;;;;;5053348;28;20258;-73
2022/06/01 12:55:46;;;;;;;1.85;1.40;;;22.10;50.40;;;;;;5051973;28;20175;-73
2022/06/01 12:58:21;;;;;;;1.42;1.23;;;21.90;50.40;;;;;;5052897;28;20170;-74
2022/06/01 13:00:54;;;;;;;2.83;1.33;;;21.70;51.60;;;;;;5052452;28;20695;-74
2022/06/01 13:03:28;;;;;;;4.03;1.58;;;21.80;51.00;;;;;;5053000;28;20230;-74
2022/06/01 13:05:56;;;;;;;6.43;1.48;;;21.70;50.30;;;;;;5053283;28;20638;-74
2022/06/01 13:08:32;;;;;;;3.95;1.70;;;21.70;52.60;;;;;;5053062;28;20599;-74
2022/06/01 13:11:12;;;;;;;1.60;1.50;;;21.80;51.40;;;;;;5053615;28;20206;-74
2022/06/01 13:13:38;;;;;;;2.63;1.52;;;21.80;51.10;;;;;;5052663;28;20209;-74
2022/06/01 13:16:06;;;;;;;5.65;1.70;;;21.80;50.10;;;;;;5052739;28;20170;-74
2022/06/01 13:18:44;;;;;;;4.07;1.48;;;21.80;50.40;;;;;;5054290;28;20175;-76
2022/06/01 13:21:31;;;;;;;4.20;1.48;;;22.00;51.40;;;;;;5054956;28;20185;-76
2022/06/01 13:24:00;;;;;;;3.53;1.55;;;22.20;51.30;;;;;;5056169;28;20202;-76
2022/06/01 13:26:43;;;;;;;2.95;1.38;;;22.50;50.30;;;;;;5056208;28;20181;-75
2022/06/01 13:29:20;;;;;;;3.45;1.33;;;22.40;51.60;;;;;;5054357;28;20228;-74
2022/06/01 13:31:55;;;;;;;3.25;1.50;;;22.20;50.80;;;;;;5057687;28;20194;-76
2022/06/01 13:34:44;;;;;;;2.17;1.52;;;21.80;49.90;;;;;;5056123;28;20197;-74
2022/06/01 13:37:22;;;;;;;2.65;1.45;;;21.50;50.20;;;;;;5054083;28;20182;-76
2022/06/01 13:39:57;;;;;;;2.53;1.58;;;21.50;50.10;;;;;;5056509;28;20575;-76
2022/06/01 13:42:51;;;;;;;7.38;1.55;;;21.60;52.50;;;;;;5056388;28;20182;-76
2022/06/01 13:45:22;;;;;;;1.85;1.60;;;21.60;52.90;;;;;;5058194;28;20190;-75
2022/06/01 13:47:58;;;;;;;4.28;1.42;;;21.60;51.00;;;;;;5056229;28;20228;-75
2022/06/01 13:50:38;;;;;;;3.58;1.50;;;21.70;51.20;;;;;;5055776;28;20175;-75
2022/06/01 13:53:11;;;;;;;1.58;1.48;;;21.70;50.70;;;;;;5056662;28;20565;-74
2022/06/01 13:55:56;;;;;;;2.72;1.42;;;21.60;51.90;;;;;;5056497;28;20170;-74
2022/06/01 13:58:52;;;;;;;6.07;1.80;;;21.50;50.20;;;;;;5056974;28;20225;-75
2022/06/01 14:01:34;;;;;;;3.70;1.50;;;21.40;51.70;;;;;;5049851;28;20197;-76